Crossroads, Mississippi
Current Conditions -  °F | °C
As of 12:35 PM on Thursday 30 Oct 2014 (Local Time) from KBXA Reporting Station
NA  
Wind Chill: 73°   Ceiling: NA
Heat Index: 73°   Visibility: 10mi
Dew Point: 35°   Wind: 9mph
Humidity: 25%   Direction: 80°E
Pressure: 30.12"   Gusts: NA
Location:  30.8781°N, 89.5858°W
Report Text: KBXA 301735Z AUTO 08008KT 10SM 23/02 A3012 RMK AO2 T02250017
Loading
Personal Weather Stations






























Interactive Weather Map
Tropical Storm Tracking
New forecast layout! Learn more

10-Day Weather Forecast

Advertisements
Track Severe Weather on mobile